Stahl, Missouri
Current Conditions -  °F | °C
As of 4:55 PM on Tuesday 27 Jan 2015 (Local Time) from KIRK Reporting Station
Clear Clear  
Wind Chill: 38°   Ceiling: Unl
Heat Index: 41°   Visibility: 10mi
Dew Point: 32°   Wind: 5mph
Humidity: 70%   Direction: 120°ESE
Pressure: 30.16"   Gusts: NA
Location:  40.2969°N, 92.7524°W
Report Text: KIRK 272255Z AUTO 12004KT 10SM CLR 05/00 A3016 RMK AO2 SLP224 T00500000
Loading
Personal Weather Stations






























Interactive Weather Map New forecast layout! Learn more

10-Day Weather Forecast

Advertisements
Track Severe Weather on mobile